Time;durP1;ratioP1;P1;durP2;ratioP2;P2;SDS_P1;SDS_P2;PMS_P1;PMS_P2;Temp;Humidity;BMP_temperature;BMP_pressure;BME280_temperature;BME280_humidity;BME280_pressure;Samples;Min_cycle;Max_cycle;Signal;HPM_P1;HPM_P2
2021/07/02 00:01:51;;;;;;;17.38;5.82;;;;;;;;;;5087480;28;20044;-34
2021/07/02 00:04:18;;;;;;;24.13;6.13;;;;;;;;;;5073102;28;20029;-35
2021/07/02 00:06:45;;;;;;;24.08;5.35;;;;;;;;;;5084618;28;20013;-37
2021/07/02 00:09:12;;;;;;;14.55;5.50;;;;;;;;;;5080514;28;20548;-33
2021/07/02 00:11:39;;;;;;;18.52;5.70;;;;;;;;;;5081564;28;20098;-34
2021/07/02 00:14:06;;;;;;;14.50;4.95;;;;;;;;;;5088113;28;20024;-39
2021/07/02 00:16:34;;;;;;;17.80;5.38;;;;;;;;;;5088024;28;20027;-34
2021/07/02 00:19:02;;;;;;;13.07;5.72;;;;;;;;;;5080290;28;20020;-36
2021/07/02 00:21:29;;;;;;;13.35;4.85;;;;;;;;;;5087627;28;20024;-33
2021/07/02 00:23:56;;;;;;;17.67;4.75;;;;;;;;;;5089692;28;20040;-40
2021/07/02 00:26:23;;;;;;;14.93;4.70;;;;;;;;;;5090131;28;20019;-39
2021/07/02 00:28:53;;;;;;;23.25;6.68;;;;;;;;;;5061618;28;20024;-49
2021/07/02 00:31:20;;;;;;;18.40;5.30;;;;;;;;;;5087550;28;20063;-33
2021/07/02 00:33:47;;;;;;;22.45;5.22;;;;;;;;;;5079317;28;20377;-32
2021/07/02 00:36:14;;;;;;;14.32;5.68;;;;;;;;;;5087598;28;20050;-33
2021/07/02 00:38:42;;;;;;;15.13;5.13;;;;;;;;;;5079700;28;20025;-36
2021/07/02 00:41:09;;;;;;;14.75;5.03;;;;;;;;;;5083441;28;20551;-34
2021/07/02 00:43:38;;;;;;;15.57;5.10;;;;;;;;;;5082863;28;20097;-33
2021/07/02 00:46:05;;;;;;;12.25;5.07;;;;;;;;;;5080731;28;20033;-34
2021/07/02 00:48:32;;;;;;;15.43;5.28;;;;;;;;;;5083121;28;20020;-34
2021/07/02 00:50:59;;;;;;;21.27;5.43;;;;;;;;;;5084150;28;20134;-34
2021/07/02 00:53:26;;;;;;;13.68;4.70;;;;;;;;;;5084018;28;20028;-32
2021/07/02 00:55:53;;;;;;;17.73;5.93;;;;;;;;;;5081269;28;20024;-36
2021/07/02 00:58:20;;;;;;;21.15;5.82;;;;;;;;;;5083151;28;20025;-37
2021/07/02 01:00:48;;;;;;;12.88;5.90;;;;;;;;;;5082177;28;20031;-42
2021/07/02 01:03:15;;;;;;;14.45;6.65;;;;;;;;;;5081824;28;20399;-37
2021/07/02 01:05:44;;;;;;;24.27;8.93;;;;;;;;;;5087652;28;20032;-35
2021/07/02 01:08:11;;;;;;;31.65;13.93;;;;;;;;;;5082624;28;20021;-39
2021/07/02 01:10:38;;;;;;;32.83;15.85;;;;;;;;;;5090653;28;20020;-32
2021/07/02 01:13:06;;;;;;;34.22;15.35;;;;;;;;;;5081348;28;20025;-32
2021/07/02 01:15:33;;;;;;;32.75;13.60;;;;;;;;;;5088035;28;20028;-35
2021/07/02 01:18:00;;;;;;;29.95;15.50;;;;;;;;;;5090238;28;20040;-32
2021/07/02 01:20:27;;;;;;;36.78;17.40;;;;;;;;;;5088571;28;20103;-34
2021/07/02 01:22:57;;;;;;;36.22;16.77;;;;;;;;;;5088896;28;20140;-33
2021/07/02 01:25:26;;;;;;;30.80;17.70;;;;;;;;;;5080931;28;20024;-32
2021/07/02 01:27:53;;;;;;;29.00;16.13;;;;;;;;;;5083519;28;20028;-36
2021/07/02 01:30:20;;;;;;;31.50;16.95;;;;;;;;;;5078583;28;20115;-31
2021/07/02 01:32:47;;;;;;;29.13;16.90;;;;;;;;;;5084228;28;20020;-39
2021/07/02 01:35:15;;;;;;;35.45;17.30;;;;;;;;;;5078255;28;20107;-41
2021/07/02 01:37:42;;;;;;;36.75;15.82;;;;;;;;;;5082360;28;20089;-38
2021/07/02 01:40:09;;;;;;;42.40;18.15;;;;;;;;;;5083820;28;20516;-37
2021/07/02 01:42:36;;;;;;;39.95;17.35;;;;;;;;;;5083109;28;20048;-37
2021/07/02 01:45:05;;;;;;;32.72;16.50;;;;;;;;;;5083002;28;20024;-38
2021/07/02 01:47:32;;;;;;;38.00;16.17;;;;;;;;;;5083119;28;20035;-35
2021/07/02 01:49:59;;;;;;;34.35;15.13;;;;;;;;;;5073616;28;20029;-33
2021/07/02 01:52:26;;;;;;;32.08;15.38;;;;;;;;;;5087606;28;20012;-39
2021/07/02 01:54:53;;;;;;;38.95;15.23;;;;;;;;;;5084442;28;20032;-36
2021/07/02 01:57:24;;;;;;;32.92;14.63;;;;;;;;;;5083536;28;20023;-35
2021/07/02 01:59:51;;;;;;;35.33;14.70;;;;;;;;;;5082887;28;20031;-34
2021/07/02 02:02:19;;;;;;;35.65;14.60;;;;;;;;;;5081251;28;20039;-38
2021/07/02 02:04:46;;;;;;;27.67;13.10;;;;;;;;;;5074658;28;20016;-34
2021/07/02 02:07:14;;;;;;;30.83;14.32;;;;;;;;;;5089034;28;20028;-36
2021/07/02 02:09:40;;;;;;;30.70;13.82;;;;;;;;;;5086569;28;20084;-37
2021/07/02 02:12:08;;;;;;;31.33;13.73;;;;;;;;;;5072219;28;20429;-37
2021/07/02 02:14:35;;;;;;;32.75;13.73;;;;;;;;;;5089890;28;20121;-39
2021/07/02 02:17:02;;;;;;;31.92;13.25;;;;;;;;;;5087382;28;20016;-37
2021/07/02 02:19:29;;;;;;;25.70;12.80;;;;;;;;;;5092382;28;20106;-43
2021/07/02 02:21:56;;;;;;;23.90;11.77;;;;;;;;;;5089422;28;20426;-33
2021/07/02 02:24:23;;;;;;;26.33;12.70;;;;;;;;;;5086340;28;20027;-55
2021/07/02 02:26:50;;;;;;;24.30;12.27;;;;;;;;;;5090190;28;20023;-45
2021/07/02 02:29:17;;;;;;;27.88;12.60;;;;;;;;;;5086148;28;20391;-51
2021/07/02 02:31:44;;;;;;;23.10;11.57;;;;;;;;;;5090582;28;20103;-55
2021/07/02 02:34:11;;;;;;;22.50;11.45;;;;;;;;;;5091463;28;20078;-44
2021/07/02 02:36:38;;;;;;;24.13;11.45;;;;;;;;;;5089622;28;20516;-46
2021/07/02 02:39:06;;;;;;;24.23;10.93;;;;;;;;;;5089801;28;20498;-41
2021/07/02 02:41:33;;;;;;;28.02;10.98;;;;;;;;;;5085683;28;20032;-36
2021/07/02 02:44:00;;;;;;;27.23;10.45;;;;;;;;;;5089927;28;20039;-36
2021/07/02 02:46:27;;;;;;;23.55;10.43;;;;;;;;;;5084080;28;20030;-40
2021/07/02 02:48:54;;;;;;;23.23;10.20;;;;;;;;;;5088365;28;20031;-45
2021/07/02 02:51:21;;;;;;;23.75;9.90;;;;;;;;;;5091381;28;20024;-39
2021/07/02 02:53:48;;;;;;;20.73;9.70;;;;;;;;;;5091043;28;20032;-35
2021/07/02 02:56:15;;;;;;;23.67;9.10;;;;;;;;;;5087760;28;20059;-37
2021/07/02 02:58:43;;;;;;;25.92;9.63;;;;;;;;;;5073561;28;20029;-32
2021/07/02 03:01:10;;;;;;;29.40;9.82;;;;;;;;;;5090251;28;20048;-38
2021/07/02 03:03:37;;;;;;;27.60;9.13;;;;;;;;;;5089464;28;20602;-33
2021/07/02 03:06:04;;;;;;;23.60;8.85;;;;;;;;;;5077909;28;20038;-33
2021/07/02 03:08:31;;;;;;;16.88;8.57;;;;;;;;;;5079122;28;20028;-34
2021/07/02 03:10:58;;;;;;;20.35;8.93;;;;;;;;;;5083670;28;20099;-37
2021/07/02 03:13:25;;;;;;;18.75;8.50;;;;;;;;;;5078438;28;20746;-34
2021/07/02 03:15:52;;;;;;;15.18;8.02;;;;;;;;;;5088345;28;20024;-37
2021/07/02 03:18:19;;;;;;;15.35;8.05;;;;;;;;;;5089468;28;20578;-33
2021/07/02 03:20:46;;;;;;;20.38;8.13;;;;;;;;;;5088590;28;20141;-35
2021/07/02 03:23:14;;;;;;;15.05;7.35;;;;;;;;;;5090683;28;20065;-34
2021/07/02 03:25:41;;;;;;;19.88;8.18;;;;;;;;;;5089995;28;20554;-35
2021/07/02 03:28:08;;;;;;;20.38;8.02;;;;;;;;;;5090801;28;20028;-35
2021/07/02 03:30:35;;;;;;;14.00;7.63;;;;;;;;;;5090093;28;20525;-32
2021/07/02 03:33:02;;;;;;;14.63;7.30;;;;;;;;;;5090510;28;20118;-36
2021/07/02 03:35:29;;;;;;;16.73;7.30;;;;;;;;;;5090027;28;20028;-36
2021/07/02 03:37:57;;;;;;;19.30;7.40;;;;;;;;;;5090521;28;20016;-38
2021/07/02 03:40:24;;;;;;;15.25;6.82;;;;;;;;;;5089977;28;20067;-34
2021/07/02 03:42:51;;;;;;;12.27;6.57;;;;;;;;;;5090302;28;20063;-34
2021/07/02 03:45:18;;;;;;;13.85;7.18;;;;;;;;;;5090520;28;20016;-34
2021/07/02 03:47:45;;;;;;;14.40;6.68;;;;;;;;;;5090216;28;20038;-37
2021/07/02 03:50:12;;;;;;;17.55;7.18;;;;;;;;;;5090954;28;20127;-35
2021/07/02 03:52:39;;;;;;;13.50;6.70;;;;;;;;;;5091004;28;20020;-39
2021/07/02 03:55:07;;;;;;;15.50;7.13;;;;;;;;;;5091307;28;20482;-35
2021/07/02 03:57:34;;;;;;;13.88;6.35;;;;;;;;;;5073826;28;20020;-35
2021/07/02 04:00:01;;;;;;;13.85;6.75;;;;;;;;;;5071452;28;20031;-34
2021/07/02 04:02:29;;;;;;;12.95;6.45;;;;;;;;;;5078801;28;20422;-34
2021/07/02 04:04:56;;;;;;;12.43;6.35;;;;;;;;;;5088287;28;20433;-37
2021/07/02 04:07:25;;;;;;;13.15;6.18;;;;;;;;;;5081482;28;20019;-33
2021/07/02 04:09:52;;;;;;;17.27;5.85;;;;;;;;;;5087869;28;20036;-34
2021/07/02 04:12:19;;;;;;;14.55;6.05;;;;;;;;;;5074639;28;20043;-36
2021/07/02 04:14:46;;;;;;;15.80;6.50;;;;;;;;;;5071167;28;20434;-33
2021/07/02 04:17:13;;;;;;;11.77;5.95;;;;;;;;;;5070651;28;20028;-37
2021/07/02 04:19:40;;;;;;;10.50;6.00;;;;;;;;;;5071272;28;20016;-34
2021/07/02 04:22:08;;;;;;;11.07;5.53;;;;;;;;;;5071376;28;20353;-35
2021/07/02 04:24:35;;;;;;;15.15;5.97;;;;;;;;;;5070456;28;20028;-32
2021/07/02 04:27:05;;;;;;;10.75;5.53;;;;;;;;;;5070822;28;20372;-33
2021/07/02 04:29:32;;;;;;;9.93;5.57;;;;;;;;;;5070956;28;20111;-39
2021/07/02 04:31:59;;;;;;;9.65;5.65;;;;;;;;;;5074406;28;20052;-37
2021/07/02 04:34:26;;;;;;;11.50;5.30;;;;;;;;;;5074452;28;20059;-37
2021/07/02 04:36:53;;;;;;;13.77;6.00;;;;;;;;;;5074393;28;20073;-36
2021/07/02 04:39:22;;;;;;;11.75;5.32;;;;;;;;;;5074436;28;20021;-41
2021/07/02 04:41:49;;;;;;;10.88;5.28;;;;;;;;;;5074564;28;20064;-39
2021/07/02 04:44:16;;;;;;;13.15;5.55;;;;;;;;;;5073899;28;20068;-33
2021/07/02 04:46:43;;;;;;;10.10;5.03;;;;;;;;;;5074858;28;20023;-34
2021/07/02 04:49:10;;;;;;;9.82;5.32;;;;;;;;;;5056040;28;20392;-33
2021/07/02 04:51:38;;;;;;;11.77;5.10;;;;;;;;;;5074366;28;20480;-36
2021/07/02 04:54:05;;;;;;;8.52;4.65;;;;;;;;;;5074661;28;20028;-35
2021/07/02 04:56:32;;;;;;;14.00;5.30;;;;;;;;;;5073966;28;20484;-37
2021/07/02 04:59:00;;;;;;;8.32;4.65;;;;;;;;;;5073900;28;20044;-35
2021/07/02 05:01:27;;;;;;;10.05;4.72;;;;;;;;;;5073862;28;20021;-36
2021/07/02 05:03:54;;;;;;;8.07;4.53;;;;;;;;;;5074256;28;20459;-36
2021/07/02 05:06:22;;;;;;;11.73;4.60;;;;;;;;;;5073766;28;20047;-36
2021/07/02 05:08:49;;;;;;;11.93;5.15;;;;;;;;;;5074144;28;20020;-33
2021/07/02 05:11:16;;;;;;;8.25;4.38;;;;;;;;;;5073865;28;20028;-37
2021/07/02 05:13:43;;;;;;;9.07;4.72;;;;;;;;;;5073873;28;20527;-31
2021/07/02 05:16:11;;;;;;;9.82;4.45;;;;;;;;;;5073822;28;20021;-35
2021/07/02 05:18:38;;;;;;;8.75;4.60;;;;;;;;;;5073732;28;20056;-35
2021/07/02 05:21:05;;;;;;;8.18;4.30;;;;;;;;;;5073761;28;20044;-37
2021/07/02 05:23:32;;;;;;;7.38;4.25;;;;;;;;;;5073508;28;20511;-37
2021/07/02 05:26:00;;;;;;;8.07;3.95;;;;;;;;;;5073662;28;20938;-36
2021/07/02 05:28:27;;;;;;;8.77;4.20;;;;;;;;;;5073136;28;20021;-37
2021/07/02 05:30:54;;;;;;;6.88;3.70;;;;;;;;;;5074091;28;20096;-37
2021/07/02 05:33:21;;;;;;;7.70;4.00;;;;;;;;;;5073005;28;20017;-38
2021/07/02 05:35:48;;;;;;;6.93;3.65;;;;;;;;;;5073348;28;20065;-39
2021/07/02 05:38:16;;;;;;;7.55;4.00;;;;;;;;;;5073118;28;20020;-36
2021/07/02 05:40:43;;;;;;;6.50;3.80;;;;;;;;;;5073574;28;20372;-34
2021/07/02 05:43:10;;;;;;;5.57;3.63;;;;;;;;;;5072232;28;20045;-34
2021/07/02 05:45:38;;;;;;;6.32;3.78;;;;;;;;;;5073568;28;20027;-39
2021/07/02 05:48:05;;;;;;;8.27;3.47;;;;;;;;;;5072407;28;20040;-35
2021/07/02 05:50:33;;;;;;;6.80;3.67;;;;;;;;;;5073310;28;20025;-40
2021/07/02 05:53:00;;;;;;;5.65;3.28;;;;;;;;;;5073304;28;20031;-31
2021/07/02 05:55:27;;;;;;;8.10;3.88;;;;;;;;;;5073229;28;20028;-36
2021/07/02 05:57:54;;;;;;;6.10;3.13;;;;;;;;;;5073442;28;20017;-34
2021/07/02 06:00:21;;;;;;;5.07;3.13;;;;;;;;;;5072648;28;20456;-36
2021/07/02 06:02:49;;;;;;;6.63;3.78;;;;;;;;;;5073386;28;20082;-39
2021/07/02 06:05:16;;;;;;;6.80;2.75;;;;;;;;;;5072655;28;20032;-33
2021/07/02 06:07:49;;;;;;;4.55;3.03;;;;;;;;;;5073099;28;20103;-40
2021/07/02 06:10:19;;;;;;;5.18;3.20;;;;;;;;;;5072544;28;20031;-36
2021/07/02 06:12:46;;;;;;;5.72;3.10;;;;;;;;;;5072774;28;20028;-37
2021/07/02 06:15:14;;;;;;;4.13;2.90;;;;;;;;;;5072426;28;20075;-36
2021/07/02 06:17:42;;;;;;;6.38;3.25;;;;;;;;;;5072387;28;20032;-39
2021/07/02 06:20:10;;;;;;;6.28;2.97;;;;;;;;;;5072221;28;20027;-33
2021/07/02 06:22:37;;;;;;;5.85;2.70;;;;;;;;;;5072941;28;20043;-37
2021/07/02 06:25:06;;;;;;;6.00;3.22;;;;;;;;;;5072531;28;20020;-35
2021/07/02 06:27:33;;;;;;;8.13;3.08;;;;;;;;;;5072869;28;20028;-36
2021/07/02 06:30:00;;;;;;;5.68;3.20;;;;;;;;;;5072567;28;20013;-31
2021/07/02 06:32:27;;;;;;;5.32;2.33;;;;;;;;;;5054331;28;20472;-34
2021/07/02 06:34:54;;;;;;;4.47;2.35;;;;;;;;;;5072614;28;20077;-41
2021/07/02 06:37:21;;;;;;;4.15;2.78;;;;;;;;;;5071903;28;20020;-40
2021/07/02 06:39:48;;;;;;;6.00;2.42;;;;;;;;;;5071795;28;20027;-43
2021/07/02 06:42:15;;;;;;;7.85;2.20;;;;;;;;;;5071614;28;20024;-47
2021/07/02 06:44:42;;;;;;;4.75;2.65;;;;;;;;;;5071902;28;20472;-40
2021/07/02 06:47:09;;;;;;;6.30;2.72;;;;;;;;;;5071233;28;20034;-48
2021/07/02 06:49:38;;;;;;;5.15;2.67;;;;;;;;;;5053953;28;20494;-50
2021/07/02 06:52:09;;;;;;;4.32;2.58;;;;;;;;;;5071522;28;20020;-46
2021/07/02 06:54:36;;;;;;;5.75;2.60;;;;;;;;;;5072169;28;20020;-37
2021/07/02 06:57:04;;;;;;;5.43;2.50;;;;;;;;;;5071556;28;20123;-44
2021/07/02 06:59:37;;;;;;;5.07;2.78;;;;;;;;;;5071561;28;20032;-36
2021/07/02 07:02:04;;;;;;;3.42;2.08;;;;;;;;;;5071639;28;20472;-42
2021/07/02 07:04:35;;;;;;;4.28;2.45;;;;;;;;;;5071948;28;20024;-34
2021/07/02 07:07:09;;;;;;;5.30;2.83;;;;;;;;;;5071771;28;20101;-32
2021/07/02 07:09:36;;;;;;;5.30;2.20;;;;;;;;;;5071294;28;20090;-34
2021/07/02 07:12:04;;;;;;;6.93;2.30;;;;;;;;;;5071884;28;20039;-36
2021/07/02 07:14:31;;;;;;;4.55;2.30;;;;;;;;;;5071288;28;20025;-41
2021/07/02 07:16:59;;;;;;;3.15;2.28;;;;;;;;;;5071528;28;20028;-38
2021/07/02 07:19:29;;;;;;;5.43;2.78;;;;;;;;;;5070975;28;20091;-45
2021/07/02 07:21:57;;;;;;;5.70;2.17;;;;;;;;;;5071636;28;20476;-40
2021/07/02 07:24:24;;;;;;;3.67;1.92;;;;;;;;;;5071026;28;20119;-52
2021/07/02 07:26:51;;;;;;;3.55;1.90;;;;;;;;;;5071386;28;20017;-42
2021/07/02 07:29:18;;;;;;;4.22;1.88;;;;;;;;;;5071052;28;20077;-33
2021/07/02 07:31:45;;;;;;;5.07;2.10;;;;;;;;;;5071601;28;20021;-39
2021/07/02 07:34:14;;;;;;;4.75;2.22;;;;;;;;;;5071464;28;20044;-36
2021/07/02 07:36:41;;;;;;;4.68;2.28;;;;;;;;;;5071618;28;20020;-36
2021/07/02 07:39:08;;;;;;;2.85;1.60;;;;;;;;;;5071415;28;20032;-36
2021/07/02 07:41:35;;;;;;;5.55;2.05;;;;;;;;;;5071115;28;20017;-35
2021/07/02 07:44:03;;;;;;;2.83;1.95;;;;;;;;;;5070765;28;20048;-38
2021/07/02 07:46:30;;;;;;;4.53;1.95;;;;;;;;;;5071756;28;20055;-33
2021/07/02 07:48:57;;;;;;;3.05;1.55;;;;;;;;;;5071447;28;20028;-38
2021/07/02 07:53:54;;;;;;;2.55;1.80;;;;;;;;;;5071977;28;20039;-37
2021/07/02 07:56:21;;;;;;;3.60;1.63;;;;;;;;;;5070602;28;20021;-35
2021/07/02 07:58:48;;;;;;;3.72;1.70;;;;;;;;;;5071234;28;20031;-34
2021/07/02 08:01:15;;;;;;;3.13;1.65;;;;;;;;;;5070840;28;20488;-33
2021/07/02 08:03:42;;;;;;;3.60;1.77;;;;;;;;;;5071431;28;20041;-36
2021/07/02 08:06:11;;;;;;;2.55;1.75;;;;;;;;;;5072353;28;20032;-33
2021/07/02 08:08:38;;;;;;;2.92;1.90;;;;;;;;;;5075571;28;20025;-38
2021/07/02 08:11:05;;;;;;;2.10;1.38;;;;;;;;;;5074434;28;20020;-36
2021/07/02 08:13:32;;;;;;;3.63;1.40;;;;;;;;;;5074927;28;20013;-38
2021/07/02 08:15:59;;;;;;;3.03;1.48;;;;;;;;;;5074822;28;20021;-33
2021/07/02 08:18:27;;;;;;;3.42;1.85;;;;;;;;;;5075033;28;20021;-35
2021/07/02 08:20:54;;;;;;;2.33;1.50;;;;;;;;;;5075162;28;20498;-34
2021/07/02 08:23:21;;;;;;;2.65;1.60;;;;;;;;;;5074752;28;20068;-36
2021/07/02 08:25:48;;;;;;;4.38;2.10;;;;;;;;;;5074766;28;20021;-40
2021/07/02 08:31:01;;;;;;;2.70;1.30;;;;;;;;;;5074859;28;20032;-36
2021/07/02 08:33:28;;;;;;;2.30;1.50;;;;;;;;;;5074421;28;20036;-36
2021/07/02 08:35:55;;;;;;;2.08;1.15;;;;;;;;;;5075140;28;20025;-33
2021/07/02 08:38:22;;;;;;;2.80;1.52;;;;;;;;;;5074315;28;20025;-36
2021/07/02 08:40:49;;;;;;;2.00;1.25;;;;;;;;;;5074727;28;20024;-37
2021/07/02 08:43:16;;;;;;;1.67;1.15;;;;;;;;;;5074304;28;20048;-42
2021/07/02 08:45:44;;;;;;;2.75;1.40;;;;;;;;;;5074715;28;20024;-41
2021/07/02 08:48:13;;;;;;;3.13;1.33;;;;;;;;;;5074242;28;20020;-36
2021/07/02 08:50:40;;;;;;;2.15;1.23;;;;;;;;;;5074692;28;20391;-33
2021/07/02 08:53:07;;;;;;;1.70;1.20;;;;;;;;;;5073814;28;20035;-35
2021/07/02 08:55:34;;;;;;;3.13;1.40;;;;;;;;;;5073968;28;20013;-39
2021/07/02 08:58:01;;;;;;;1.52;1.23;;;;;;;;;;5074075;28;20095;-36
2021/07/02 09:00:28;;;;;;;1.30;1.10;;;;;;;;;;5074317;28;20032;-33
2021/07/02 09:02:56;;;;;;;2.33;1.30;;;;;;;;;;5074119;28;20029;-41
2021/07/02 09:05:36;;;;;;;2.78;1.30;;;;;;;;;;5073999;28;20020;-39
2021/07/02 09:08:15;;;;;;;1.80;1.20;;;;;;;;;;5074593;28;20028;-35
2021/07/02 09:10:42;;;;;;;2.78;1.42;;;;;;;;;;5073600;28;20044;-36
2021/07/02 09:13:09;;;;;;;5.25;1.33;;;;;;;;;;5074119;28;20009;-35
2021/07/02 09:15:47;;;;;;;2.03;1.15;;;;;;;;;;5073589;28;20025;-41
2021/07/02 09:18:14;;;;;;;2.20;1.38;;;;;;;;;;5072861;28;20017;-38
2021/07/02 09:20:43;;;;;;;2.67;1.35;;;;;;;;;;5073476;28;20016;-33
2021/07/02 09:23:14;;;;;;;1.77;0.82;;;;;;;;;;5073487;28;20039;-35
2021/07/02 09:25:47;;;;;;;2.78;1.00;;;;;;;;;;5073066;28;20017;-33
2021/07/02 09:28:18;;;;;;;2.15;1.10;;;;;;;;;;5074175;28;20438;-35
2021/07/02 09:30:46;;;;;;;1.92;1.13;;;;;;;;;;5073173;28;20016;-35
2021/07/02 09:33:15;;;;;;;1.92;1.08;;;;;;;;;;5073659;28;20020;-33
2021/07/02 09:35:48;;;;;;;2.08;1.15;;;;;;;;;;5073161;28;20085;-38
2021/07/02 09:38:17;;;;;;;2.58;1.00;;;;;;;;;;5073506;28;20020;-33
2021/07/02 09:40:44;;;;;;;1.67;1.05;;;;;;;;;;5072966;28;20546;-34
2021/07/02 09:43:18;;;;;;;1.70;1.10;;;;;;;;;;5072969;28;20048;-33
2021/07/02 09:45:45;;;;;;;2.05;0.95;;;;;;;;;;5073122;28;20093;-34
2021/07/02 09:48:13;;;;;;;1.83;1.02;;;;;;;;;;5055333;28;20655;-32
2021/07/02 09:50:44;;;;;;;2.45;1.23;;;;;;;;;;5073291;28;20044;-39
2021/07/02 09:53:11;;;;;;;1.67;1.00;;;;;;;;;;5072930;28;20029;-35
2021/07/02 09:55:45;;;;;;;3.10;0.80;;;;;;;;;;5073080;28;20372;-40
2021/07/02 09:58:17;;;;;;;1.00;0.77;;;;;;;;;;5072484;28;20379;-35
2021/07/02 10:00:47;;;;;;;3.13;1.00;;;;;;;;;;5073059;28;20017;-36
2021/07/02 10:03:15;;;;;;;3.58;1.05;;;;;;;;;;5072484;28;20040;-33
2021/07/02 10:05:48;;;;;;;1.95;1.00;;;;;;;;;;5073023;28;20048;-37
2021/07/02 10:08:15;;;;;;;4.57;1.10;;;;;;;;;;5072320;28;20430;-33
2021/07/02 10:10:43;;;;;;;2.05;1.00;;;;;;;;;;5072846;28;20020;-37
2021/07/02 10:13:10;;;;;;;3.28;1.10;;;;;;;;;;5072325;28;20464;-34
2021/07/02 10:15:37;;;;;;;2.10;0.90;;;;;;;;;;5072714;28;20115;-35
2021/07/02 10:18:08;;;;;;;1.48;0.88;;;;;;;;;;5055727;28;20054;-35
2021/07/02 10:20:35;;;;;;;2.10;0.90;;;;;;;;;;5092003;28;20024;-36
2021/07/02 10:23:02;;;;;;;1.55;0.80;;;;;;;;;;5073371;28;20036;-35
2021/07/02 10:25:31;;;;;;;1.60;0.88;;;;;;;;;;5084437;28;20046;-34
2021/07/02 10:27:59;;;;;;;2.95;1.08;;;;;;;;;;5078816;28;20116;-32
2021/07/02 10:30:26;;;;;;;2.05;1.02;;;;;;;;;;5084683;28;20095;-34
2021/07/02 10:32:58;;;;;;;2.47;1.00;;;;;;;;;;5081465;28;20062;-32
2021/07/02 10:35:28;;;;;;;2.08;0.80;;;;;;;;;;5087651;28;20375;-33
2021/07/02 10:37:57;;;;;;;4.40;1.20;;;;;;;;;;5079341;28;20016;-34
2021/07/02 10:40:31;;;;;;;1.67;0.85;;;;;;;;;;5082982;28;20027;-37
2021/07/02 10:43:09;;;;;;;2.13;0.90;;;;;;;;;;5072198;28;20048;-34
2021/07/02 10:45:36;;;;;;;1.90;0.90;;;;;;;;;;5071528;28;20021;-33
2021/07/02 10:48:04;;;;;;;3.33;1.13;;;;;;;;;;5072526;28;20100;-32
2021/07/02 10:50:37;;;;;;;3.60;1.05;;;;;;;;;;5071544;28;20024;-35
2021/07/02 10:53:22;;;;;;;2.00;0.82;;;;;;;;;;5071918;28;20021;-36
2021/07/02 10:55:49;;;;;;;3.53;0.88;;;;;;;;;;5053432;28;20059;-35
2021/07/02 10:58:16;;;;;;;2.00;0.93;;;;;;;;;;5072136;28;20031;-36
2021/07/02 11:01:01;;;;;;;1.05;0.70;;;;;;;;;;5071649;28;20028;-36
2021/07/02 11:03:29;;;;;;;1.65;0.77;;;;;;;;;;5071512;28;20792;-31
2021/07/02 11:05:56;;;;;;;2.75;0.90;;;;;;;;;;5071657;28;20150;-35
2021/07/02 11:08:49;;;;;;;2.80;0.88;;;;;;;;;;5072169;28;20024;-33
2021/07/02 11:11:16;;;;;;;2.58;0.90;;;;;;;;;;5066457;28;20123;-42
2021/07/02 11:14:01;;;;;;;2.47;1.02;;;;;;;;;;5071554;28;20422;-37
2021/07/02 11:16:28;;;;;;;5.68;1.08;;;;;;;;;;5071651;28;20032;-43
2021/07/02 11:18:55;;;;;;;13.63;1.30;;;;;;;;;;5071168;28;20056;-38
2021/07/02 11:21:22;;;;;;;84.35;6.25;;;;;;;;;;5071876;28;20396;-41
2021/07/02 11:23:49;;;;;;;43.55;3.50;;;;;;;;;;5071238;28;20059;-41
2021/07/02 11:26:36;;;;;;;25.40;3.72;;;;;;;;;;5071519;28;20395;-35
2021/07/02 11:29:03;;;;;;;18.13;1.95;;;;;;;;;;5071368;28;20083;-33
2021/07/02 11:31:39;;;;;;;19.98;2.53;;;;;;;;;;5071573;28;20028;-41
2021/07/02 11:34:13;;;;;;;10.20;2.47;;;;;;;;;;5071224;28;20025;-34
2021/07/02 11:36:40;;;;;;;22.60;3.38;;;;;;;;;;5071926;28;20025;-36
2021/07/02 11:39:07;;;;;;;13.55;2.15;;;;;;;;;;5071232;28;20103;-40
2021/07/02 11:41:34;;;;;;;14.90;2.15;;;;;;;;;;5070998;28;20518;-36
2021/07/02 11:44:02;;;;;;;13.55;2.33;;;;;;;;;;5070969;28;20074;-34
2021/07/02 11:46:30;;;;;;;16.02;2.20;;;;;;;;;;5071741;28;20028;-34
2021/07/02 11:48:58;;;;;;;15.02;2.65;;;;;;;;;;5071204;28;20028;-35
2021/07/02 11:51:30;;;;;;;19.83;2.60;;;;;;;;;;5071624;28;20028;-35
2021/07/02 11:54:01;;;;;;;15.18;2.47;;;;;;;;;;5071212;28;20020;-34
2021/07/02 11:56:29;;;;;;;16.95;2.22;;;;;;;;;;5071784;28;20069;-35
2021/07/02 11:59:00;;;;;;;13.93;2.45;;;;;;;;;;5076386;28;20039;-37
2021/07/02 12:01:29;;;;;;;26.45;3.50;;;;;;;;;;5089016;28;20020;-35
2021/07/02 12:04:00;;;;;;;35.70;3.50;;;;;;;;;;5090981;28;20040;-40
2021/07/02 12:06:35;;;;;;;21.27;3.63;;;;;;;;;;5091567;28;20502;-35
2021/07/02 12:09:11;;;;;;;27.33;4.00;;;;;;;;;;5090661;28;20038;-37
2021/07/02 12:11:46;;;;;;;35.35;3.60;;;;;;;;;;5079997;28;20468;-41
2021/07/02 12:14:14;;;;;;;38.72;2.78;;;;;;;;;;5091007;28;20020;-33
2021/07/02 12:16:42;;;;;;;16.25;2.15;;;;;;;;;;5085345;28;20024;-35
2021/07/02 12:19:17;;;;;;;14.52;2.53;;;;;;;;;;5091028;28;20376;-39
2021/07/02 12:21:55;;;;;;;10.95;1.92;;;;;;;;;;5088656;28;20020;-36
2021/07/02 12:24:23;;;;;;;18.10;2.47;;;;;;;;;;5088765;28;20471;-36
2021/07/02 12:26:54;;;;;;;16.70;2.72;;;;;;;;;;5089973;28;20047;-39
2021/07/02 12:29:21;;;;;;;16.15;2.47;;;;;;;;;;5091315;28;20020;-36
2021/07/02 12:31:49;;;;;;;13.90;3.72;;;;;;;;;;5091262;28;20020;-37
2021/07/02 12:34:18;;;;;;;17.38;4.10;;;;;;;;;;5091658;28;20016;-37
2021/07/02 12:36:56;;;;;;;24.33;4.18;;;;;;;;;;5090667;28;20028;-37
2021/07/02 12:39:43;;;;;;;17.15;3.67;;;;;;;;;;5089550;28;20020;-37
2021/07/02 12:42:18;;;;;;;13.95;3.60;;;;;;;;;;5090078;28;20585;-38
2021/07/02 12:44:49;;;;;;;16.52;2.70;;;;;;;;;;5091029;28;20043;-35
2021/07/02 12:47:17;;;;;;;10.23;2.78;;;;;;;;;;5090779;28;20482;-36
2021/07/02 12:49:52;;;;;;;5.97;2.53;;;;;;;;;;5090637;28;20027;-39
2021/07/02 12:55:17;;;;;;;12.45;2.60;;;;;;;;;;5094705;28;20024;-36
2021/07/02 12:57:52;;;;;;;11.85;2.38;;;;;;;;;;5094262;28;20042;-38
2021/07/02 13:00:22;;;;;;;8.40;2.35;;;;;;;;;;5094665;28;20066;-37
2021/07/02 13:02:52;;;;;;;14.63;2.70;;;;;;;;;;5075766;28;20064;-38
2021/07/02 13:05:21;;;;;;;10.80;1.92;;;;;;;;;;5094339;28;20119;-35
2021/07/02 13:07:55;;;;;;;8.85;2.38;;;;;;;;;;5093977;28;20413;-40
2021/07/02 13:10:23;;;;;;;6.90;1.83;;;;;;;;;;5094558;28;20098;-38
2021/07/02 13:13:02;;;;;;;7.88;2.00;;;;;;;;;;5093758;28;20090;-36
2021/07/02 13:15:29;;;;;;;6.88;1.70;;;;;;;;;;5093605;28;20499;-36
2021/07/02 13:17:57;;;;;;;11.35;2.10;;;;;;;;;;5094052;28;20016;-37
2021/07/02 13:20:24;;;;;;;6.07;1.77;;;;;;;;;;5089383;28;20483;-38
2021/07/02 13:23:05;;;;;;;13.65;1.80;;;;;;;;;;5082836;28;20025;-38
2021/07/02 13:25:32;;;;;;;3.88;1.50;;;;;;;;;;5073054;28;20032;-36
2021/07/02 13:28:00;;;;;;;9.10;1.85;;;;;;;;;;5073691;28;20021;-35
2021/07/02 13:30:28;;;;;;;6.00;1.42;;;;;;;;;;5073543;28;20025;-39
2021/07/02 13:33:12;;;;;;;9.02;1.50;;;;;;;;;;5055820;28;20024;-40
2021/07/02 13:35:40;;;;;;;4.05;1.40;;;;;;;;;;5073087;28;20020;-38
2021/07/02 13:38:07;;;;;;;5.10;1.30;;;;;;;;;;5073728;28;20048;-40
2021/07/02 13:40:45;;;;;;;10.27;1.70;;;;;;;;;;5073035;28;20431;-35
2021/07/02 13:43:16;;;;;;;9.30;1.40;;;;;;;;;;5073461;28;20076;-35
2021/07/02 13:46:03;;;;;;;6.00;1.33;;;;;;;;;;5082445;28;20043;-36
2021/07/02 13:48:31;;;;;;;5.63;0.98;;;;;;;;;;5091080;28;20035;-36
2021/07/02 13:50:58;;;;;;;5.07;1.13;;;;;;;;;;5086649;28;20020;-37
2021/07/02 13:53:26;;;;;;;9.32;0.90;;;;;;;;;;5059278;28;20020;-38
2021/07/02 13:55:54;;;;;;;6.47;1.10;;;;;;;;;;5092757;28;20024;-37
2021/07/02 13:58:21;;;;;;;10.25;1.42;;;;;;;;;;5089833;28;20107;-38
2021/07/02 14:00:48;;;;;;;4.18;1.30;;;;;;;;;;5082359;28;20024;-37
2021/07/02 14:03:16;;;;;;;10.15;1.60;;;;;;;;;;5081561;28;20035;-37
2021/07/02 14:05:44;;;;;;;10.70;1.77;;;;;;;;;;5092666;28;20380;-36
2021/07/02 14:08:11;;;;;;;7.00;1.23;;;;;;;;;;5092664;28;20039;-39
2021/07/02 14:10:39;;;;;;;7.03;1.40;;;;;;;;;;5093415;28;20021;-35
2021/07/02 14:13:06;;;;;;;8.93;1.33;;;;;;;;;;5092959;28;20031;-34
2021/07/02 14:15:33;;;;;;;8.35;1.25;;;;;;;;;;5093157;28;20020;-35
2021/07/02 14:18:01;;;;;;;18.48;2.58;;;;;;;;;;5082897;28;20025;-35
2021/07/02 14:20:28;;;;;;;7.88;1.20;;;;;;;;;;5072904;28;20021;-35
2021/07/02 14:22:55;;;;;;;4.55;1.05;;;;;;;;;;5075052;28;20028;-33
2021/07/02 14:25:23;;;;;;;5.40;1.45;;;;;;;;;;5081039;28;20056;-35
2021/07/02 14:27:50;;;;;;;12.98;1.00;;;;;;;;;;5074484;28;20033;-33
2021/07/02 14:30:18;;;;;;;20.27;2.55;;;;;;;;;;5072618;28;20044;-35
2021/07/02 14:32:45;;;;;;;9.43;1.50;;;;;;;;;;5072301;28;20023;-34
2021/07/02 14:35:17;;;;;;;17.00;1.65;;;;;;;;;;5072040;28;20103;-36
2021/07/02 14:37:47;;;;;;;12.77;1.45;;;;;;;;;;5071537;28;20029;-34
2021/07/02 14:40:14;;;;;;;13.40;1.73;;;;;;;;;;5079370;28;20020;-36
2021/07/02 14:42:42;;;;;;;11.95;1.50;;;;;;;;;;5091967;28;20051;-35
2021/07/02 14:45:10;;;;;;;15.40;1.52;;;;;;;;;;5091978;28;20132;-35
2021/07/02 14:47:37;;;;;;;7.20;1.13;;;;;;;;;;5091589;28;20024;-35
2021/07/02 14:50:05;;;;;;;6.25;1.15;;;;;;;;;;5091672;28;20024;-39
2021/07/02 14:52:32;;;;;;;11.43;1.20;;;;;;;;;;5092203;28;20365;-36